createdAt,value
2019-04-07T00:00:53.056Z,940.00
2019-04-07T00:01:52.822Z,940.00
2019-04-07T00:02:52.809Z,939.97
2019-04-07T00:03:53.249Z,940.01
2019-04-07T00:04:52.811Z,940.02
2019-04-07T00:05:52.767Z,940.04
2019-04-07T00:06:53.294Z,939.99
2019-04-07T00:07:53.041Z,940.07
2019-04-07T00:08:52.736Z,940.04
2019-04-07T00:09:52.746Z,940.05
2019-04-07T00:10:52.854Z,940.04
2019-04-07T00:11:53.481Z,940.02
2019-04-07T00:12:52.701Z,940.00
2019-04-07T00:13:52.674Z,940.02
2019-04-07T00:14:52.703Z,940.02
2019-04-07T00:15:52.671Z,940.05
2019-04-07T00:16:53.658Z,940.05
2019-04-07T00:17:53.127Z,940.05
2019-04-07T00:18:52.622Z,940.06
2019-04-07T00:19:52.610Z,940.05
2019-04-07T00:20:52.887Z,940.08
2019-04-07T00:21:52.588Z,940.05
2019-04-07T00:22:52.602Z,940.04
2019-04-07T00:23:52.561Z,940.08
2019-04-07T00:24:52.557Z,940.08
2019-04-07T00:25:52.583Z,940.10
2019-04-07T00:26:52.535Z,940.10
2019-04-07T00:27:52.584Z,940.10
2019-04-07T00:28:53.144Z,940.08
2019-04-07T00:29:52.518Z,940.07
2019-04-07T00:30:52.503Z,940.09
2019-04-07T00:31:52.492Z,940.05
2019-04-07T00:32:52.464Z,940.06
2019-04-07T00:33:52.997Z,940.12
2019-04-07T00:34:52.998Z,940.10
2019-04-07T00:35:52.430Z,940.13
2019-04-07T00:36:52.462Z,940.08
2019-04-07T00:37:52.881Z,940.14
2019-04-07T00:38:52.406Z,940.12
2019-04-07T00:39:52.383Z,940.09
2019-04-07T00:40:52.518Z,940.06
2019-04-07T00:41:52.942Z,940.09
2019-04-07T00:42:52.368Z,940.07
2019-04-07T00:43:52.341Z,940.10
2019-04-07T00:44:52.333Z,940.06
2019-04-07T00:45:52.507Z,940.02
2019-04-07T00:46:52.577Z,940.03
2019-04-07T00:47:52.624Z,940.05
2019-04-07T00:48:52.938Z,940.06
2019-04-07T00:49:52.267Z,940.04
2019-04-07T00:50:52.258Z,940.05
2019-04-07T00:51:52.902Z,940.02
2019-04-07T00:52:52.527Z,940.03
2019-04-07T00:53:52.249Z,940.03
2019-04-07T00:54:52.297Z,940.06
2019-04-07T00:55:52.887Z,940.05
2019-04-07T00:56:52.232Z,940.09
2019-04-07T00:57:52.910Z,940.09
2019-04-07T00:58:52.422Z,940.06
2019-04-07T00:59:52.193Z,940.07
2019-04-07T01:00:52.163Z,940.10
2019-04-07T01:01:52.611Z,940.05
2019-04-07T01:02:52.178Z,940.05
2019-04-07T01:03:52.145Z,940.06
2019-04-07T01:04:52.131Z,940.06
2019-04-07T01:05:52.219Z,940.09
2019-04-07T01:06:52.642Z,940.07
2019-04-07T01:07:52.081Z,940.02
2019-04-07T01:08:52.477Z,940.10
2019-04-07T01:09:52.062Z,940.06
2019-04-07T01:10:52.498Z,940.05
2019-04-07T01:11:52.378Z,940.09
2019-04-07T01:12:52.183Z,940.06
2019-04-07T01:13:52.010Z,940.10
2019-04-07T01:14:52.143Z,940.10
2019-04-07T01:15:51.987Z,940.08
2019-04-07T01:16:51.970Z,940.09
2019-04-07T01:17:52.374Z,940.12
2019-04-07T01:18:52.041Z,940.06
2019-04-07T01:19:51.990Z,940.03
2019-04-07T01:20:51.947Z,940.08
2019-04-07T01:21:51.914Z,940.05
2019-04-07T01:22:51.904Z,940.07
2019-04-07T01:23:51.936Z,940.10
2019-04-07T01:24:51.881Z,940.07
2019-04-07T01:25:52.278Z,940.07
2019-04-07T01:26:52.422Z,940.14
2019-04-07T01:27:51.839Z,940.09
2019-04-07T01:28:54.292Z,940.05
2019-04-07T01:29:51.844Z,940.08
2019-04-07T01:30:51.810Z,940.14
2019-04-07T01:31:51.830Z,940.13
2019-04-07T01:32:52.172Z,940.11
2019-04-07T01:33:52.165Z,940.12
2019-04-07T01:34:51.774Z,940.11
2019-04-07T01:35:51.775Z,940.14
2019-04-07T01:36:51.770Z,940.13
2019-04-07T01:37:51.817Z,940.15
2019-04-07T01:38:52.124Z,940.14
2019-04-07T01:39:51.719Z,940.16
2019-04-07T01:40:51.956Z,940.18
2019-04-07T01:41:51.717Z,940.16
2019-04-07T01:42:52.165Z,940.18
2019-04-07T01:43:51.694Z,940.18
2019-04-07T01:44:51.894Z,940.15
2019-04-07T01:45:51.661Z,940.16
2019-04-07T01:46:51.646Z,940.15
2019-04-07T01:47:52.320Z,940.14
2019-04-07T01:48:52.096Z,940.12
2019-04-07T01:49:52.323Z,940.12
2019-04-07T01:50:51.837Z,940.13
2019-04-07T01:51:51.855Z,940.08
2019-04-07T01:52:51.903Z,940.13
2019-04-07T01:53:51.960Z,940.03
2019-04-07T01:54:51.542Z,940.07
2019-04-07T01:55:52.087Z,940.09
2019-04-07T01:56:51.623Z,940.09
2019-04-07T01:57:51.875Z,940.10
2019-04-07T01:58:51.508Z,940.07
2019-04-07T01:59:51.941Z,940.07
2019-04-07T02:00:52.129Z,940.08
2019-04-07T02:01:51.740Z,940.08
2019-04-07T02:02:52.019Z,940.04
2019-04-07T02:03:51.479Z,940.04
2019-04-07T02:04:51.472Z,940.06
2019-04-07T02:05:58.567Z,940.06
2019-04-07T02:06:52.905Z,940.04
2019-04-07T02:07:51.405Z,940.05
2019-04-07T02:08:51.745Z,940.08
2019-04-07T02:09:51.424Z,940.03
2019-04-07T02:10:51.621Z,940.05
2019-04-07T02:11:51.358Z,940.05
2019-04-07T02:12:51.839Z,940.01
2019-04-07T02:13:51.631Z,940.02
2019-04-07T02:14:52.091Z,940.02
2019-04-07T02:15:51.325Z,940.06
2019-04-07T02:16:51.319Z,940.05
2019-04-07T02:17:51.551Z,940.04
2019-04-07T02:18:51.277Z,940.06
2019-04-07T02:19:51.307Z,940.03
2019-04-07T02:20:51.641Z,940.08
2019-04-07T02:21:51.533Z,940.08
2019-04-07T02:22:51.997Z,940.05
2019-04-07T02:23:51.218Z,940.05
2019-04-07T02:24:51.210Z,940.05
2019-04-07T02:25:51.539Z,940.07
2019-04-07T02:26:51.186Z,940.08
2019-04-07T02:27:51.258Z,940.07
2019-04-07T02:28:51.162Z,940.08
2019-04-07T02:29:51.215Z,940.09
2019-04-07T02:30:52.199Z,940.11
2019-04-07T02:31:51.974Z,940.12
2019-04-07T02:32:51.203Z,940.09
2019-04-07T02:33:51.199Z,940.14
2019-04-07T02:34:51.099Z,940.15
2019-04-07T02:35:51.081Z,940.14
2019-04-07T02:36:51.101Z,940.16
2019-04-07T02:37:51.060Z,940.16
2019-04-07T02:38:51.944Z,940.18
2019-04-07T02:39:51.040Z,940.17
2019-04-07T02:40:51.401Z,940.21
2019-04-07T02:41:51.770Z,940.23
2019-04-07T02:42:51.008Z,940.23
2019-04-07T02:43:51.005Z,940.28
2019-04-07T02:44:50.994Z,940.25
2019-04-07T02:45:50.970Z,940.26
2019-04-07T02:46:51.666Z,940.23
2019-04-07T02:47:51.281Z,940.29
2019-04-07T02:48:51.222Z,940.26
2019-04-07T02:49:51.756Z,940.26
2019-04-07T02:50:51.006Z,940.21
2019-04-07T02:51:50.913Z,940.32
2019-04-07T02:52:51.446Z,940.22
2019-04-07T02:53:51.118Z,940.30
2019-04-07T02:54:51.509Z,940.27
2019-04-07T02:55:50.901Z,940.34
2019-04-07T02:56:50.860Z,940.27
2019-04-07T02:57:50.837Z,940.25
2019-04-07T02:58:51.439Z,940.31
2019-04-07T02:59:51.475Z,940.32
2019-04-07T03:00:50.947Z,940.25
2019-04-07T03:01:51.893Z,940.31
2019-04-07T03:02:51.530Z,940.31
2019-04-07T03:03:50.793Z,940.32
2019-04-07T03:04:51.160Z,940.33
2019-04-07T03:05:50.823Z,940.38
2019-04-07T03:06:53.101Z,940.36
2019-04-07T03:07:50.727Z,940.36
2019-04-07T03:08:50.721Z,940.38
2019-04-07T03:09:51.612Z,940.37
2019-04-07T03:10:51.403Z,940.35
2019-04-07T03:11:51.003Z,940.41
2019-04-07T03:12:51.215Z,940.39
2019-04-07T03:13:51.908Z,940.40
2019-04-07T03:14:50.800Z,940.39
2019-04-07T03:15:50.654Z,940.43
2019-04-07T03:16:51.481Z,940.39
2019-04-07T03:17:50.638Z,940.40
2019-04-07T03:18:50.754Z,940.43
2019-04-07T03:19:50.596Z,940.42
2019-04-07T03:20:51.365Z,940.43
2019-04-07T03:21:50.572Z,940.44
2019-04-07T03:22:50.826Z,940.41
2019-04-07T03:23:51.366Z,940.46
2019-04-07T03:24:50.531Z,940.41
2019-04-07T03:25:50.532Z,940.40
2019-04-07T03:26:51.438Z,940.35
2019-04-07T03:27:51.418Z,940.35
2019-04-07T03:28:51.346Z,940.37
2019-04-07T03:29:50.523Z,940.34
2019-04-07T03:30:51.786Z,940.34
2019-04-07T03:31:51.411Z,940.32
2019-04-07T03:32:53.286Z,940.40
2019-04-07T03:33:51.888Z,940.38
2019-04-07T03:34:52.055Z,940.39
2019-04-07T03:35:53.129Z,940.40
2019-04-07T03:37:16.900Z,940.38
2019-04-07T03:37:51.575Z,940.39
2019-04-07T03:38:50.573Z,940.36
2019-04-07T03:39:51.251Z,940.38
2019-04-07T03:40:51.519Z,940.38
2019-04-07T03:41:51.254Z,940.39
2019-04-07T03:42:51.182Z,940.39
2019-04-07T03:43:50.914Z,940.38
2019-04-07T03:44:51.194Z,940.31
2019-04-07T03:45:50.295Z,940.34
2019-04-07T03:46:50.327Z,940.35
2019-04-07T03:47:50.537Z,940.31
2019-04-07T03:48:50.883Z,940.30
2019-04-07T03:49:50.858Z,940.31
2019-04-07T03:50:50.821Z,940.35
2019-04-07T03:51:50.230Z,940.32
2019-04-07T03:52:51.055Z,940.36
2019-04-07T03:53:50.528Z,940.35
2019-04-07T03:54:50.854Z,940.32
2019-04-07T03:55:50.190Z,940.30
2019-04-07T03:56:50.172Z,940.33
2019-04-07T03:57:50.692Z,940.38
2019-04-07T03:58:50.744Z,940.30
2019-04-07T03:59:50.144Z,940.30
2019-04-07T04:00:50.308Z,940.27
2019-04-07T04:01:50.115Z,940.29
2019-04-07T04:02:50.555Z,940.27
2019-04-07T04:03:50.142Z,940.26
2019-04-07T04:04:50.624Z,940.20
2019-04-07T04:05:52.181Z,940.21
2019-04-07T04:06:50.053Z,940.21
2019-04-07T04:07:50.066Z,940.22
2019-04-07T04:08:50.893Z,940.25
2019-04-07T04:09:50.077Z,940.23
2019-04-07T04:10:50.188Z,940.24
2019-04-07T04:11:50.046Z,940.25
2019-04-07T04:12:51.161Z,940.29
2019-04-07T04:13:50.928Z,940.31
2019-04-07T04:14:50.797Z,940.32
2019-04-07T04:15:50.144Z,940.29
2019-04-07T04:16:50.776Z,940.24
2019-04-07T04:17:51.163Z,940.25
2019-04-07T04:18:50.334Z,940.27
2019-04-07T04:19:49.914Z,940.32
2019-04-07T04:20:49.933Z,940.28
2019-04-07T04:21:49.892Z,940.33
2019-04-07T04:22:50.631Z,940.32
2019-04-07T04:23:49.883Z,940.39
2019-04-07T04:24:50.008Z,940.39
2019-04-07T04:25:49.867Z,940.38
2019-04-07T04:26:50.124Z,940.39
2019-04-07T04:27:50.853Z,940.42
2019-04-07T04:28:50.679Z,940.42
2019-04-07T04:29:51.877Z,940.41
2019-04-07T04:30:50.673Z,940.45
2019-04-07T04:31:49.774Z,940.41
2019-04-07T04:32:49.812Z,940.41
2019-04-07T04:33:49.750Z,940.43
2019-04-07T04:34:49.757Z,940.42
2019-04-07T04:35:49.731Z,940.41
2019-04-07T04:36:50.264Z,940.41
2019-04-07T04:37:53.075Z,940.43
2019-04-07T04:38:50.298Z,940.46
2019-04-07T04:39:49.690Z,940.43
2019-04-07T04:40:50.540Z,940.40
2019-04-07T04:41:49.676Z,940.43
2019-04-07T04:42:50.387Z,940.41
2019-04-07T04:43:49.674Z,940.41
2019-04-07T04:44:49.624Z,940.40
2019-04-07T04:45:50.431Z,940.44
2019-04-07T04:46:49.850Z,940.43
2019-04-07T04:47:49.604Z,940.37
2019-04-07T04:48:49.604Z,940.46
2019-04-07T04:49:50.306Z,940.41
2019-04-07T04:50:50.454Z,940.45
2019-04-07T04:51:50.135Z,940.47
2019-04-07T04:52:49.542Z,940.43
2019-04-07T04:53:50.278Z,940.48
2019-04-07T04:54:49.745Z,940.44
2019-04-07T04:55:49.545Z,940.52
2019-04-07T04:56:50.112Z,940.48
2019-04-07T04:57:49.832Z,940.56
2019-04-07T04:58:49.690Z,940.53
2019-04-07T04:59:49.475Z,940.51
2019-04-07T05:00:50.566Z,940.49
2019-04-07T05:01:49.948Z,940.51
2019-04-07T05:02:49.577Z,940.49
2019-04-07T05:03:49.486Z,940.53
2019-04-07T05:04:49.681Z,940.54
2019-04-07T05:05:49.427Z,940.57
2019-04-07T05:06:49.417Z,940.57
2019-04-07T05:07:57.828Z,940.55
2019-04-07T05:08:49.961Z,940.57
2019-04-07T05:09:53.025Z,940.59
2019-04-07T05:10:50.975Z,940.59
2019-04-07T05:11:49.667Z,940.57
2019-04-07T05:12:49.333Z,940.62
2019-04-07T05:13:49.294Z,940.62
2019-04-07T05:14:49.313Z,940.60
2019-04-07T05:15:50.111Z,940.60
2019-04-07T05:16:49.310Z,940.57
2019-04-07T05:17:49.300Z,940.61
2019-04-07T05:18:49.242Z,940.63
2019-04-07T05:19:49.739Z,940.66
2019-04-07T05:20:49.917Z,940.63
2019-04-07T05:21:49.489Z,940.63
2019-04-07T05:22:49.230Z,940.63
2019-04-07T05:23:49.191Z,940.67
2019-04-07T05:24:50.389Z,940.67
2019-04-07T05:25:49.198Z,940.71
2019-04-07T05:26:49.252Z,940.71
2019-04-07T05:27:49.278Z,940.67
2019-04-07T05:28:49.212Z,940.70
2019-04-07T05:29:49.532Z,940.71
2019-04-07T05:30:49.107Z,940.73
2019-04-07T05:31:49.214Z,940.69
2019-04-07T05:32:49.102Z,940.71
2019-04-07T05:33:49.098Z,940.71
2019-04-07T05:34:49.064Z,940.72
2019-04-07T05:35:49.575Z,940.70
2019-04-07T05:36:49.034Z,940.76
2019-04-07T05:38:00.177Z,940.76
2019-04-07T05:38:50.082Z,940.74
2019-04-07T05:39:49.027Z,940.77
2019-04-07T05:40:48.989Z,940.75
2019-04-07T05:41:49.079Z,940.80
2019-04-07T05:42:49.667Z,940.79
2019-04-07T05:43:49.126Z,940.79
2019-04-07T05:44:48.986Z,940.79
2019-04-07T05:45:48.957Z,940.74
2019-04-07T05:46:49.832Z,940.75
2019-04-07T05:47:50.413Z,940.74
2019-04-07T05:48:50.514Z,940.75
2019-04-07T05:49:48.956Z,940.76
2019-04-07T05:50:48.907Z,940.72
2019-04-07T05:51:48.933Z,940.74
2019-04-07T05:52:48.921Z,940.74
2019-04-07T05:53:49.192Z,940.73
2019-04-07T05:54:49.936Z,940.71
2019-04-07T05:55:49.168Z,940.70
2019-04-07T05:56:49.240Z,940.73
2019-04-07T05:57:48.806Z,940.76
2019-04-07T05:58:48.854Z,940.71
2019-04-07T05:59:48.824Z,940.73
2019-04-07T06:00:49.970Z,940.74
2019-04-07T06:01:51.675Z,940.76
2019-04-07T06:02:48.755Z,940.73
2019-04-07T06:03:48.737Z,940.75
2019-04-07T06:04:49.266Z,940.74
2019-04-07T06:05:51.064Z,940.70
2019-04-07T06:06:52.705Z,940.73
2019-04-07T06:07:50.334Z,940.75
2019-04-07T06:08:49.655Z,940.71
2019-04-07T06:09:51.255Z,940.78
2019-04-07T06:10:48.654Z,940.80
2019-04-07T06:11:48.806Z,940.97
2019-04-07T06:12:49.217Z,941.14
2019-04-07T06:13:48.761Z,941.15
2019-04-07T06:14:48.619Z,941.13
2019-04-07T06:15:49.361Z,941.14
2019-04-07T06:16:51.877Z,941.09
2019-04-07T06:17:49.088Z,941.10
2019-04-07T06:18:48.587Z,941.12
2019-04-07T06:19:51.172Z,941.14
2019-04-07T06:20:48.599Z,941.09
2019-04-07T06:21:48.873Z,941.13
2019-04-07T06:22:52.741Z,941.12
2019-04-07T06:23:49.630Z,941.11
2019-04-07T06:24:48.776Z,941.12
2019-04-07T06:25:48.490Z,941.15
2019-04-07T06:26:49.925Z,941.11
2019-04-07T06:27:50.068Z,941.16
2019-04-07T06:28:52.159Z,941.12
2019-04-07T06:29:51.115Z,941.15
2019-04-07T06:30:48.445Z,941.21
2019-04-07T06:31:48.474Z,941.18
2019-04-07T06:32:48.424Z,941.18
2019-04-07T06:33:49.210Z,941.23
2019-04-07T06:34:49.775Z,941.28
2019-04-07T06:35:48.420Z,941.23
2019-04-07T06:36:51.810Z,941.23
2019-04-07T06:37:49.360Z,941.18
2019-04-07T06:38:52.325Z,941.21
2019-04-07T06:39:50.851Z,941.21
2019-04-07T06:40:52.732Z,941.26
2019-04-07T06:41:48.895Z,941.24
2019-04-07T06:42:48.872Z,941.16
2019-04-07T06:43:48.295Z,941.19
2019-04-07T06:44:50.499Z,941.23
2019-04-07T06:45:49.058Z,941.22
2019-04-07T06:46:48.252Z,941.21
2019-04-07T06:47:48.642Z,941.21
2019-04-07T06:48:48.772Z,941.24
2019-04-07T06:49:48.370Z,941.25
2019-04-07T06:50:54.868Z,941.23
2019-04-07T06:51:50.030Z,941.24
2019-04-07T06:52:48.799Z,941.18
2019-04-07T06:53:49.092Z,941.19
2019-04-07T06:54:50.112Z,941.21
2019-04-07T06:55:49.669Z,941.19
2019-04-07T06:56:48.142Z,941.21
2019-04-07T06:57:48.262Z,941.20
2019-04-07T06:58:48.220Z,941.18
2019-04-07T06:59:49.118Z,941.22
2019-04-07T07:00:49.143Z,941.21
2019-04-07T07:01:48.162Z,941.23
2019-04-07T07:02:48.796Z,941.21
2019-04-07T07:03:48.589Z,941.23
2019-04-07T07:04:48.579Z,941.18
2019-04-07T07:05:48.330Z,941.18
2019-04-07T07:06:48.386Z,941.12
2019-04-07T07:07:49.055Z,941.13
2019-04-07T07:08:48.669Z,941.04
2019-04-07T07:09:48.078Z,941.02
2019-04-07T07:10:50.485Z,940.96
2019-04-07T07:11:48.586Z,940.94
2019-04-07T07:12:48.016Z,940.88
2019-04-07T07:13:47.959Z,940.86
2019-04-07T07:14:49.560Z,940.86
2019-04-07T07:15:48.266Z,940.90
2019-04-07T07:16:47.925Z,940.88
2019-04-07T07:17:49.965Z,940.88
2019-04-07T07:18:48.696Z,940.89
2019-04-07T07:19:47.891Z,940.89
2019-04-07T07:20:47.893Z,940.87
2019-04-07T07:21:47.874Z,940.92
2019-04-07T07:22:48.745Z,940.87
2019-04-07T07:23:49.068Z,940.90
2019-04-07T07:24:47.847Z,940.92
2019-04-07T07:25:48.595Z,940.91
2019-04-07T07:26:47.975Z,940.92
2019-04-07T07:27:47.891Z,940.93
2019-04-07T07:28:48.061Z,940.93
2019-04-07T07:29:50.539Z,940.91
2019-04-07T07:30:51.810Z,940.91
2019-04-07T07:31:48.318Z,940.91
2019-04-07T07:32:48.537Z,940.94
2019-04-07T07:33:48.298Z,940.95
2019-04-07T07:34:47.906Z,940.87
2019-04-07T07:35:49.264Z,940.92
2019-04-07T07:36:52.015Z,940.91
2019-04-07T07:37:48.698Z,940.91
2019-04-07T07:38:57.539Z,940.94
2019-04-07T07:39:49.247Z,940.95
2019-04-07T07:40:49.140Z,940.93
2019-04-07T07:41:50.376Z,940.90
2019-04-07T07:42:49.670Z,940.92
2019-04-07T07:43:48.178Z,940.90
2019-04-07T07:44:48.310Z,940.86
2019-04-07T07:45:48.600Z,940.88
2019-04-07T07:46:50.417Z,940.91
2019-04-07T07:47:51.293Z,940.91
2019-04-07T07:48:47.625Z,940.90
2019-04-07T07:49:48.246Z,940.89
2019-04-07T07:50:47.842Z,940.94
2019-04-07T07:51:48.675Z,940.90
2019-04-07T07:52:51.366Z,940.94
2019-04-07T07:53:48.695Z,940.93
2019-04-07T07:54:49.621Z,940.95
2019-04-07T07:55:47.673Z,940.91
2019-04-07T07:56:50.166Z,940.90
2019-04-07T07:57:48.143Z,940.95
2019-04-07T07:58:48.311Z,940.91
2019-04-07T07:59:47.451Z,940.94
2019-04-07T08:00:47.597Z,940.91
2019-04-07T08:01:50.213Z,940.91
2019-04-07T08:02:50.257Z,940.98
2019-04-07T08:03:47.401Z,941.02
2019-04-07T08:04:47.717Z,940.96
2019-04-07T08:05:47.497Z,940.94
2019-04-07T08:06:47.934Z,940.93
2019-04-07T08:07:49.440Z,940.90
2019-04-07T08:08:48.436Z,940.91
2019-04-07T08:09:48.026Z,940.94
2019-04-07T08:10:48.320Z,940.98
2019-04-07T08:11:47.842Z,940.99
2019-04-07T08:12:49.494Z,941.03
2019-04-07T08:13:47.297Z,941.00
2019-04-07T08:14:50.393Z,941.03
2019-04-07T08:15:47.270Z,941.03
2019-04-07T08:16:47.862Z,941.06
2019-04-07T08:17:47.424Z,941.05
2019-04-07T08:18:47.398Z,941.08
2019-04-07T08:19:48.951Z,941.12
2019-04-07T08:20:47.895Z,941.09
2019-04-07T08:21:50.349Z,941.09
2019-04-07T08:22:47.196Z,941.09
2019-04-07T08:23:47.178Z,941.09
2019-04-07T08:24:49.574Z,941.11
2019-04-07T08:25:47.221Z,941.10
2019-04-07T08:26:48.723Z,941.12
2019-04-07T08:27:47.665Z,941.14
2019-04-07T08:28:48.209Z,941.17
2019-04-07T08:29:47.404Z,941.16
2019-04-07T08:30:47.624Z,941.16
2019-04-07T08:31:47.117Z,941.21
2019-04-07T08:32:47.782Z,941.20
2019-04-07T08:33:50.241Z,941.20
2019-04-07T08:34:47.098Z,941.18
2019-04-07T08:35:47.034Z,941.31
2019-04-07T08:36:47.949Z,941.31
2019-04-07T08:37:48.704Z,941.22
2019-04-07T08:38:47.692Z,941.22
2019-04-07T08:39:47.539Z,941.24
2019-04-07T08:40:47.840Z,941.17
2019-04-07T08:41:47.259Z,941.11
2019-04-07T08:42:49.106Z,941.18
2019-04-07T08:43:46.954Z,941.22
2019-04-07T08:44:47.362Z,941.19
2019-04-07T08:45:47.128Z,941.20
2019-04-07T08:46:46.915Z,941.23
2019-04-07T08:47:48.876Z,941.20
2019-04-07T08:48:49.723Z,941.22
2019-04-07T08:49:47.070Z,941.15
2019-04-07T08:50:47.447Z,941.18
2019-04-07T08:51:46.866Z,941.21
2019-04-07T08:52:46.845Z,941.16
2019-04-07T08:53:47.364Z,941.15
2019-04-07T08:54:50.372Z,941.13
2019-04-07T08:55:48.774Z,941.20
2019-04-07T08:56:46.920Z,941.20
2019-04-07T08:57:46.949Z,941.21
2019-04-07T08:58:46.804Z,941.17
2019-04-07T08:59:46.831Z,941.24
2019-04-07T09:00:50.964Z,941.18
2019-04-07T09:01:51.736Z,941.19
2019-04-07T09:02:59.750Z,941.21
2019-04-07T09:03:48.389Z,941.14
2019-04-07T09:04:49.760Z,941.13
2019-04-07T09:05:46.784Z,941.18
2019-04-07T09:06:47.460Z,941.21
2019-04-07T09:07:47.174Z,941.23
2019-04-07T09:08:46.670Z,941.16
2019-04-07T09:09:48.697Z,941.19
2019-04-07T09:10:49.173Z,941.21
2019-04-07T09:11:48.048Z,941.19
2019-04-07T09:12:46.621Z,941.21
2019-04-07T09:13:46.626Z,941.16
2019-04-07T09:14:46.746Z,941.20
2019-04-07T09:15:48.880Z,941.19
2019-04-07T09:16:48.056Z,941.15
2019-04-07T09:17:47.510Z,941.18
2019-04-07T09:18:53.647Z,941.16
2019-04-07T09:19:47.542Z,941.21
2019-04-07T09:20:49.282Z,941.20
2019-04-07T09:21:49.485Z,941.19
2019-04-07T09:22:46.514Z,941.19
2019-04-07T09:23:46.825Z,941.20
2019-04-07T09:24:47.204Z,941.24
2019-04-07T09:25:46.677Z,941.15
2019-04-07T09:26:46.811Z,941.23
2019-04-07T09:27:48.587Z,941.20
2019-04-07T09:28:46.439Z,941.21
2019-04-07T09:29:46.432Z,941.23
2019-04-07T09:30:47.114Z,941.20
2019-04-07T09:31:46.427Z,941.23
2019-04-07T09:32:46.400Z,941.17
2019-04-07T09:33:48.955Z,941.17
2019-04-07T09:34:50.603Z,941.22
2019-04-07T09:35:47.611Z,941.26
2019-04-07T09:36:49.437Z,941.28
2019-04-07T09:37:47.060Z,941.16
2019-04-07T09:38:46.978Z,941.26
2019-04-07T09:39:57.051Z,941.22
2019-04-07T09:40:48.463Z,941.20
2019-04-07T09:41:46.286Z,941.21
2019-04-07T09:42:46.316Z,941.21
2019-04-07T09:43:46.299Z,941.15
2019-04-07T09:44:46.752Z,941.20
2019-04-07T09:45:46.621Z,941.26
2019-04-07T09:46:49.368Z,941.24
2019-04-07T09:47:47.146Z,941.28
2019-04-07T09:48:48.800Z,941.23
2019-04-07T09:49:48.504Z,941.27
2019-04-07T09:50:47.034Z,941.22
2019-04-07T09:51:46.258Z,941.26
2019-04-07T09:52:48.761Z,941.31
2019-04-07T09:53:48.845Z,941.22
2019-04-07T09:54:46.153Z,941.29
2019-04-07T09:55:47.222Z,941.21
2019-04-07T09:56:46.209Z,941.19
2019-04-07T09:57:46.201Z,941.17
2019-04-07T09:58:46.901Z,941.21
2019-04-07T09:59:46.586Z,941.22
2019-04-07T10:00:46.532Z,941.16
2019-04-07T10:01:46.079Z,941.28
2019-04-07T10:02:46.945Z,941.21
2019-04-07T10:03:46.076Z,941.20
2019-04-07T10:04:46.043Z,941.21
2019-04-07T10:05:47.739Z,941.26
2019-04-07T10:06:46.056Z,941.25
2019-04-07T10:07:46.861Z,941.26
2019-04-07T10:08:57.119Z,941.26
2019-04-07T10:09:46.064Z,941.24
2019-04-07T10:10:47.222Z,941.26
2019-04-07T10:11:55.387Z,941.22
2019-04-07T10:12:46.021Z,941.19
2019-04-07T10:13:46.392Z,941.21
2019-04-07T10:14:46.617Z,941.22
2019-04-07T10:15:45.991Z,941.26
2019-04-07T10:16:46.050Z,941.29
2019-04-07T10:17:45.929Z,941.27
2019-04-07T10:18:46.008Z,941.24
2019-04-07T10:19:46.813Z,941.23
2019-04-07T10:20:46.685Z,941.25
2019-04-07T10:21:45.850Z,941.27
2019-04-07T10:22:46.190Z,941.29
2019-04-07T10:23:48.681Z,941.36
2019-04-07T10:24:45.963Z,941.22
2019-04-07T10:25:46.582Z,941.25
2019-04-07T10:26:45.787Z,941.31
2019-04-07T10:27:46.420Z,941.28
2019-04-07T10:28:46.157Z,941.31
2019-04-07T10:29:45.760Z,941.27
2019-04-07T10:30:45.958Z,941.33
2019-04-07T10:31:46.381Z,941.33
2019-04-07T10:32:46.330Z,941.24
2019-04-07T10:33:46.075Z,941.33
2019-04-07T10:34:46.092Z,941.30
2019-04-07T10:35:45.741Z,941.35
2019-04-07T10:36:45.676Z,941.34
2019-04-07T10:37:45.664Z,941.36
2019-04-07T10:38:45.654Z,941.28
2019-04-07T10:39:46.219Z,941.29
2019-04-07T10:40:45.655Z,941.33
2019-04-07T10:41:46.371Z,941.31
2019-04-07T10:42:45.921Z,941.32
2019-04-07T10:43:45.598Z,941.36
2019-04-07T10:44:45.602Z,941.30
2019-04-07T10:45:45.922Z,941.34
2019-04-07T10:46:46.046Z,941.36
2019-04-07T10:47:46.125Z,941.34
2019-04-07T10:48:45.687Z,941.39
2019-04-07T10:49:57.556Z,941.41
2019-04-07T10:50:46.954Z,941.35
2019-04-07T10:51:45.953Z,941.34
2019-04-07T10:52:45.957Z,941.39
2019-04-07T10:53:45.499Z,941.42
2019-04-07T10:54:45.478Z,941.39
2019-04-07T10:55:45.560Z,941.41
2019-04-07T10:56:46.074Z,941.34
2019-04-07T10:57:54.814Z,941.32
2019-04-07T10:58:54.128Z,941.34
2019-04-07T10:59:45.527Z,941.33
2019-04-07T11:00:48.814Z,941.36
2019-04-07T11:01:46.543Z,941.32
2019-04-07T11:02:45.934Z,941.38
2019-04-07T11:03:45.431Z,941.39
2019-04-07T11:04:46.032Z,941.32
2019-04-07T11:05:45.380Z,941.33
2019-04-07T11:06:46.135Z,941.34
2019-04-07T11:07:45.823Z,941.27
2019-04-07T11:08:45.532Z,941.29
2019-04-07T11:09:45.860Z,941.28
2019-04-07T11:10:45.324Z,941.29
2019-04-07T11:11:47.834Z,941.29
2019-04-07T11:12:46.760Z,941.21
2019-04-07T11:13:45.779Z,941.28
2019-04-07T11:14:45.545Z,941.28
2019-04-07T11:15:45.246Z,941.31
2019-04-07T11:16:45.297Z,941.27
2019-04-07T11:17:45.277Z,941.25
2019-04-07T11:18:45.245Z,941.28
2019-04-07T11:19:45.235Z,941.28
2019-04-07T11:20:45.569Z,941.30
2019-04-07T11:21:45.186Z,941.24
2019-04-07T11:22:45.291Z,941.29
2019-04-07T11:23:45.282Z,941.22
2019-04-07T11:24:45.877Z,941.23
2019-04-07T11:25:45.132Z,941.23
2019-04-07T11:26:45.475Z,941.23
2019-04-07T11:27:45.128Z,941.19
2019-04-07T11:28:45.091Z,941.19
2019-04-07T11:29:45.104Z,941.24
2019-04-07T11:30:45.412Z,941.21
2019-04-07T11:31:45.111Z,941.13
2019-04-07T11:32:45.395Z,941.16
2019-04-07T11:33:45.052Z,941.15
2019-04-07T11:34:45.484Z,941.16
2019-04-07T11:35:45.605Z,941.18
2019-04-07T11:36:45.343Z,941.17
2019-04-07T11:37:45.906Z,941.13
2019-04-07T11:38:45.288Z,941.11
2019-04-07T11:39:46.269Z,941.14
2019-04-07T11:40:49.843Z,941.15
2019-04-07T11:41:46.056Z,941.16
2019-04-07T11:42:44.932Z,941.10
2019-04-07T11:43:44.926Z,941.15
2019-04-07T11:44:45.573Z,941.14
2019-04-07T11:45:56.425Z,941.09
2019-04-07T11:46:46.460Z,941.09
2019-04-07T11:47:44.939Z,941.07
2019-04-07T11:48:44.997Z,941.04
2019-04-07T11:49:46.009Z,941.06
2019-04-07T11:50:45.010Z,941.08
2019-04-07T11:51:44.870Z,941.13
2019-04-07T11:52:44.848Z,941.16
2019-04-07T11:53:45.745Z,941.12
2019-04-07T11:54:44.969Z,941.11
2019-04-07T11:55:45.408Z,941.06
2019-04-07T11:56:44.775Z,941.13
2019-04-07T11:57:45.349Z,941.14
2019-04-07T11:58:45.256Z,941.05
2019-04-07T11:59:44.837Z,941.08
2019-04-07T12:00:45.232Z,941.07
2019-04-07T12:01:47.541Z,941.10
2019-04-07T12:02:45.463Z,941.11
2019-04-07T12:03:45.375Z,941.09
2019-04-07T12:04:44.707Z,941.02
2019-04-07T12:05:44.711Z,941.04
2019-04-07T12:06:48.166Z,941.04
2019-04-07T12:07:44.657Z,941.10
2019-04-07T12:08:44.671Z,941.09
2019-04-07T12:09:44.637Z,941.01
2019-04-07T12:10:54.866Z,940.99
2019-04-07T12:11:46.451Z,941.01
2019-04-07T12:12:44.590Z,940.98
2019-04-07T12:13:44.917Z,941.03
2019-04-07T12:14:47.174Z,941.09
2019-04-07T12:15:45.180Z,940.99
2019-04-07T12:16:44.830Z,940.98
2019-04-07T12:17:44.909Z,941.04
2019-04-07T12:18:47.216Z,941.00
2019-04-07T12:19:44.527Z,941.02
2019-04-07T12:20:45.086Z,940.98
2019-04-07T12:21:45.022Z,941.03
2019-04-07T12:22:46.874Z,941.01
2019-04-07T12:23:44.479Z,941.03
2019-04-07T12:24:44.495Z,941.02
2019-04-07T12:25:44.457Z,941.04
2019-04-07T12:26:45.207Z,940.96
2019-04-07T12:27:45.772Z,941.01
2019-04-07T12:28:47.567Z,940.95